Terminal Aerodrome Forecast
Issued by NWS Melbourne, FL

Home | Current Version | Previous Version | Text Only | Print | Product List | Glossary On
Versions: 1 2 3 4 5 6 7 8 9 10 11 12 13 14
719
FTUS42 KMLB 292336
TAFVRB
TAF
KVRB 292336Z 3000/3024 12005KT P6SM SCT040 SCT100 BKN250
     FM300300 00000KT P6SM FEW025 SCT250
     FM301400 27006KT P6SM SCT025
     FM301600 08008KT P6SM VCTS SCT040CB BKN250=

USA.gov is the U.S. government's official web portal to all federal, state and local government web resources and services.